Time;durP1;ratioP1;P1;durP2;ratioP2;P2;SDS_P1;SDS_P2;PMS_P1;PMS_P2;Temp;Humidity;BMP_temperature;BMP_pressure;BME280_temperature;BME280_humidity;BME280_pressure;Samples;Min_cycle;Max_cycle;Signal;HPM_P1;HPM_P2
2022/03/09 00:01:34;;;;;;;12.18;6.95;;;18.00;45.70;;;;;;5013974;28;20024;-78
2022/03/09 00:04:00;;;;;;;13.40;7.30;;;17.90;45.70;;;;;;5014106;28;20032;-78
2022/03/09 00:06:26;;;;;;;10.38;7.55;;;17.90;45.60;;;;;;5014480;28;20029;-79
2022/03/09 00:08:52;;;;;;;10.63;6.75;;;17.90;45.60;;;;;;5013985;28;20371;-79
2022/03/09 00:11:18;;;;;;;9.40;6.70;;;17.90;45.50;;;;;;5014091;28;20029;-78
2022/03/09 00:13:43;;;;;;;11.13;6.90;;;17.90;45.50;;;;;;5013547;28;20029;-79
2022/03/09 00:16:09;;;;;;;10.38;6.93;;;17.90;45.40;;;;;;4996408;28;20029;-78
2022/03/09 00:18:34;;;;;;;13.20;6.97;;;17.80;45.40;;;;;;4996193;28;20549;-78
2022/03/09 00:21:00;;;;;;;9.15;6.00;;;17.80;45.30;;;;;;4996383;28;20026;-78
2022/03/09 00:23:26;;;;;;;10.13;6.15;;;17.80;45.40;;;;;;5014061;28;20403;-78
2022/03/09 00:25:51;;;;;;;10.82;6.80;;;17.70;45.30;;;;;;5013653;28;20045;-78
2022/03/09 00:28:17;;;;;;;10.25;6.63;;;17.80;46.00;;;;;;5013529;28;20034;-78
2022/03/09 00:30:43;;;;;;;11.52;7.15;;;17.70;45.50;;;;;;5013413;28;20111;-77
2022/03/09 00:33:08;;;;;;;11.30;7.47;;;17.70;46.10;;;;;;5013728;28;20565;-78
2022/03/09 00:35:37;;;;;;;10.18;6.55;;;17.70;45.60;;;;;;4995908;28;20041;-78
2022/03/09 00:38:03;;;;;;;10.23;5.68;;;17.70;45.60;;;;;;5013614;28;20026;-78
2022/03/09 00:40:28;;;;;;;10.40;6.43;;;17.70;45.70;;;;;;5013953;28;20037;-78
2022/03/09 00:42:56;;;;;;;11.73;6.10;;;17.60;45.70;;;;;;5013773;28;20037;-78
2022/03/09 00:45:21;;;;;;;8.82;5.70;;;17.60;45.70;;;;;;5013498;28;20077;-78
2022/03/09 00:47:47;;;;;;;11.52;6.57;;;17.60;45.70;;;;;;5013101;28;20057;-79
2022/03/09 00:50:13;;;;;;;8.30;5.53;;;17.60;45.70;;;;;;5013504;28;20113;-78
2022/03/09 00:52:38;;;;;;;8.40;6.13;;;17.60;45.70;;;;;;5013016;28;20253;-78
2022/03/09 00:55:06;;;;;;;10.52;6.25;;;17.60;45.60;;;;;;5013066;28;20026;-78
2022/03/09 00:57:31;;;;;;;10.20;6.85;;;17.50;45.60;;;;;;5012638;28;20028;-78
2022/03/09 00:59:57;;;;;;;12.45;6.20;;;17.60;45.60;;;;;;5013124;28;20101;-78
2022/03/09 01:02:23;;;;;;;8.60;5.68;;;17.50;45.50;;;;;;5013154;28;20044;-78
2022/03/09 01:04:48;;;;;;;9.48;6.32;;;17.50;45.50;;;;;;5012973;28;20226;-79
2022/03/09 01:07:14;;;;;;;9.38;6.10;;;17.50;45.40;;;;;;5012874;28;20370;-79
2022/03/09 01:09:40;;;;;;;8.02;5.90;;;17.50;45.40;;;;;;5012913;28;20581;-78
2022/03/09 01:12:06;;;;;;;10.18;6.05;;;17.50;45.40;;;;;;5012921;28;20022;-78
2022/03/09 01:14:31;;;;;;;8.48;5.40;;;17.40;45.30;;;;;;5012796;28;20025;-78
2022/03/09 01:16:57;;;;;;;8.10;5.95;;;17.40;45.30;;;;;;5013365;28;20026;-78
2022/03/09 01:19:22;;;;;;;9.60;6.07;;;17.40;45.40;;;;;;5012617;28;20052;-78
2022/03/09 01:21:48;;;;;;;8.60;5.75;;;17.40;46.00;;;;;;5012347;28;20325;-77
2022/03/09 01:24:14;;;;;;;9.43;5.85;;;17.40;47.80;;;;;;5012886;28;20025;-77
2022/03/09 01:26:40;;;;;;;8.15;5.63;;;17.40;49.40;;;;;;4994821;28;20029;-77
2022/03/09 01:29:07;;;;;;;6.93;4.85;;;17.40;49.50;;;;;;4995121;28;20029;-77
2022/03/09 01:31:33;;;;;;;7.88;5.35;;;17.40;49.40;;;;;;5012320;28;20406;-77
2022/03/09 01:33:59;;;;;;;8.43;6.07;;;17.40;49.70;;;;;;5012583;28;20057;-77
2022/03/09 01:36:25;;;;;;;9.80;5.25;;;17.40;49.80;;;;;;5012592;28;20022;-77
2022/03/09 01:38:50;;;;;;;8.02;5.47;;;17.40;49.20;;;;;;5011964;28;20164;-77
2022/03/09 01:41:16;;;;;;;9.20;6.15;;;17.40;48.90;;;;;;5012398;28;20478;-77
2022/03/09 01:43:41;;;;;;;8.10;5.63;;;17.40;48.20;;;;;;5012154;28;20482;-77
2022/03/09 01:46:07;;;;;;;8.52;5.78;;;17.40;47.90;;;;;;5012451;28;20390;-77
2022/03/09 01:48:33;;;;;;;8.63;5.30;;;17.40;47.70;;;;;;5011960;28;20485;-77
2022/03/09 01:50:59;;;;;;;8.75;5.20;;;17.40;47.40;;;;;;5012076;28;20033;-77
2022/03/09 01:53:25;;;;;;;7.40;5.22;;;17.40;47.30;;;;;;4994776;28;20026;-77
2022/03/09 01:55:51;;;;;;;7.68;5.32;;;17.40;47.30;;;;;;5011697;28;20053;-77
2022/03/09 01:58:16;;;;;;;7.75;5.20;;;17.40;47.30;;;;;;5012114;28;20068;-78
2022/03/09 02:00:42;;;;;;;7.07;5.00;;;17.30;47.10;;;;;;5011916;28;20465;-78
2022/03/09 02:03:08;;;;;;;8.32;5.78;;;17.40;47.20;;;;;;5012017;28;20034;-78
2022/03/09 02:05:35;;;;;;;7.85;5.72;;;17.30;47.00;;;;;;5011761;28;20049;-78
2022/03/09 02:10:46;;;;;;;6.18;4.97;;;17.30;46.90;;;;;;5010911;28;20028;-78
2022/03/09 02:13:12;;;;;;;8.00;5.25;;;17.40;46.90;;;;;;5010585;28;20034;-78
2022/03/09 02:15:37;;;;;;;7.95;5.28;;;17.40;46.80;;;;;;4994047;28;20076;-78
2022/03/09 02:18:04;;;;;;;8.45;5.35;;;17.40;46.80;;;;;;5011550;28;20383;-77
2022/03/09 02:20:29;;;;;;;7.25;5.13;;;17.40;46.70;;;;;;5010092;28;20026;-78
2022/03/09 02:22:56;;;;;;;7.10;5.00;;;17.40;46.60;;;;;;5011888;28;20021;-77
2022/03/09 02:25:22;;;;;;;6.47;5.20;;;17.40;46.50;;;;;;5011766;28;20021;-77
2022/03/09 02:27:48;;;;;;;6.68;5.13;;;17.40;46.50;;;;;;5011546;28;20030;-77
2022/03/09 02:30:16;;;;;;;7.95;4.97;;;17.40;46.50;;;;;;5011480;28;20060;-78
2022/03/09 02:32:48;;;;;;;6.35;4.45;;;17.40;46.40;;;;;;5011259;28;20064;-77
2022/03/09 02:35:15;;;;;;;8.95;5.55;;;17.40;46.30;;;;;;4991934;28;20021;-78
2022/03/09 02:37:42;;;;;;;8.25;5.10;;;17.40;46.40;;;;;;4991494;28;20405;-77
2022/03/09 02:40:10;;;;;;;7.68;5.32;;;17.40;46.30;;;;;;4991949;28;20431;-77
2022/03/09 02:42:36;;;;;;;7.32;5.28;;;17.40;46.20;;;;;;4991553;28;20022;-77
2022/03/09 02:45:04;;;;;;;6.18;4.80;;;17.40;46.10;;;;;;4991984;28;20034;-77
2022/03/09 02:47:29;;;;;;;6.95;4.82;;;17.40;46.20;;;;;;4991581;28;20026;-77
2022/03/09 02:49:55;;;;;;;7.28;5.07;;;17.40;46.10;;;;;;4991835;28;20041;-77
2022/03/09 02:52:21;;;;;;;8.80;5.30;;;17.40;46.10;;;;;;4990595;28;20022;-77
2022/03/09 02:54:46;;;;;;;7.47;4.88;;;17.40;46.10;;;;;;4991432;28;20491;-77
2022/03/09 02:57:12;;;;;;;7.03;5.28;;;17.50;46.10;;;;;;4991721;28;20388;-77
2022/03/09 02:59:37;;;;;;;6.05;4.90;;;17.40;46.00;;;;;;4991256;28;20114;-77
2022/03/09 03:02:03;;;;;;;5.63;4.53;;;17.40;45.90;;;;;;4991775;28;20076;-77
2022/03/09 03:04:29;;;;;;;7.95;4.97;;;17.50;45.90;;;;;;4991465;28;20061;-77
2022/03/09 03:06:55;;;;;;;8.15;4.60;;;17.50;45.90;;;;;;4991906;28;20030;-77
2022/03/09 03:09:20;;;;;;;6.45;4.95;;;17.50;45.80;;;;;;4991737;28;20497;-77
2022/03/09 03:11:46;;;;;;;4.97;4.25;;;17.50;45.80;;;;;;4991587;28;20105;-77
2022/03/09 03:14:11;;;;;;;6.90;4.63;;;17.50;45.70;;;;;;4991589;28;20026;-77
2022/03/09 03:16:37;;;;;;;6.25;4.57;;;17.50;45.70;;;;;;4991337;28;20030;-77
2022/03/09 03:19:03;;;;;;;6.38;4.68;;;17.50;45.70;;;;;;5006515;28;20085;-77
2022/03/09 03:21:29;;;;;;;7.65;5.05;;;17.50;45.60;;;;;;5007605;28;20276;-77
2022/03/09 03:23:54;;;;;;;7.35;4.50;;;17.50;45.60;;;;;;5010818;28;20031;-77
2022/03/09 03:26:20;;;;;;;7.55;5.38;;;17.50;45.50;;;;;;4995167;28;20062;-78
2022/03/09 03:28:46;;;;;;;6.70;4.80;;;17.50;45.50;;;;;;5010169;28;20490;-77
2022/03/09 03:31:11;;;;;;;5.82;4.78;;;17.50;45.40;;;;;;4995154;28;20446;-77
2022/03/09 03:33:37;;;;;;;6.60;4.45;;;17.50;45.30;;;;;;5002121;28;20030;-78
2022/03/09 03:36:03;;;;;;;7.45;5.28;;;17.50;45.40;;;;;;5014544;28;20489;-78
2022/03/09 03:38:29;;;;;;;8.65;5.32;;;17.50;45.40;;;;;;5014864;28;20041;-77
2022/03/09 03:40:54;;;;;;;7.78;5.22;;;17.50;45.30;;;;;;4997326;28;20029;-77
2022/03/09 03:43:20;;;;;;;6.05;4.30;;;17.50;45.30;;;;;;5014659;28;20030;-77
2022/03/09 03:45:45;;;;;;;5.38;4.35;;;17.50;45.30;;;;;;5014333;28;20033;-77
2022/03/09 03:48:11;;;;;;;6.25;4.43;;;17.50;45.30;;;;;;5014266;28;20401;-77
2022/03/09 03:50:37;;;;;;;6.53;4.80;;;17.50;45.20;;;;;;5014275;28;20030;-78
2022/03/09 03:53:03;;;;;;;6.32;4.68;;;17.50;45.20;;;;;;4996804;28;20489;-77
2022/03/09 03:55:29;;;;;;;6.95;4.78;;;17.60;45.20;;;;;;4997183;28;20025;-77
2022/03/09 03:57:54;;;;;;;5.63;4.72;;;17.50;45.10;;;;;;4996834;28;20042;-77
2022/03/09 04:00:23;;;;;;;8.10;5.78;;;17.60;45.10;;;;;;5014424;28;20030;-77
2022/03/09 04:02:49;;;;;;;6.90;4.70;;;17.50;45.00;;;;;;4996294;28;20030;-77
2022/03/09 04:05:14;;;;;;;6.50;4.68;;;17.60;45.00;;;;;;4996583;28;20465;-77
2022/03/09 04:07:40;;;;;;;7.22;4.47;;;17.60;44.90;;;;;;4996328;28;20030;-77
2022/03/09 04:10:06;;;;;;;7.30;5.05;;;17.60;44.90;;;;;;5014047;28;20113;-77
2022/03/09 04:12:32;;;;;;;6.57;4.55;;;17.60;44.90;;;;;;5013723;28;20084;-76
2022/03/09 04:14:57;;;;;;;6.15;4.50;;;17.60;44.90;;;;;;4996818;28;20022;-77
2022/03/09 04:17:23;;;;;;;6.72;4.35;;;17.60;44.80;;;;;;4996348;28;20125;-76
2022/03/09 04:19:49;;;;;;;7.68;4.85;;;17.60;44.80;;;;;;5013740;28;20049;-77
2022/03/09 04:22:15;;;;;;;5.85;4.45;;;17.60;44.80;;;;;;5013961;28;20034;-77
2022/03/09 04:24:40;;;;;;;6.95;3.75;;;17.60;44.80;;;;;;4995868;28;20018;-77
2022/03/09 04:27:06;;;;;;;6.32;4.65;;;17.60;44.80;;;;;;4996118;28;20112;-77
2022/03/09 04:29:32;;;;;;;6.50;4.72;;;17.60;44.80;;;;;;5013597;28;20033;-77
2022/03/09 04:31:58;;;;;;;5.57;4.40;;;17.60;45.10;;;;;;5013874;28;20401;-77
2022/03/09 04:34:23;;;;;;;5.55;4.50;;;17.60;44.70;;;;;;5012473;28;20021;-77
2022/03/09 04:36:49;;;;;;;4.70;3.90;;;17.60;44.70;;;;;;5013572;28;20449;-77
2022/03/09 04:39:15;;;;;;;5.15;4.07;;;17.60;44.60;;;;;;4996030;28;20048;-77
2022/03/09 04:41:40;;;;;;;6.30;4.70;;;17.60;44.60;;;;;;5011909;28;20080;-77
2022/03/09 04:44:06;;;;;;;7.22;4.55;;;17.60;44.50;;;;;;5013320;28;20397;-77
2022/03/09 04:46:32;;;;;;;6.75;4.60;;;17.60;44.50;;;;;;4995419;28;20026;-77
2022/03/09 04:48:57;;;;;;;5.82;4.63;;;17.60;44.50;;;;;;5013704;28;20072;-77
2022/03/09 04:51:23;;;;;;;5.38;4.20;;;17.60;44.40;;;;;;5013276;28;20101;-77
2022/03/09 04:53:49;;;;;;;6.28;4.45;;;17.60;44.30;;;;;;5013045;28;20034;-78
2022/03/09 04:56:15;;;;;;;5.75;4.38;;;17.60;44.30;;;;;;5013089;28;20433;-78
2022/03/09 04:58:41;;;;;;;6.20;4.80;;;17.60;44.20;;;;;;5012950;28;20080;-79
2022/03/09 05:01:06;;;;;;;5.88;4.70;;;17.60;44.20;;;;;;5012913;28;20022;-79
2022/03/09 05:03:34;;;;;;;6.15;4.55;;;17.60;44.20;;;;;;5013036;28;20466;-77
2022/03/09 05:06:01;;;;;;;5.88;4.30;;;17.60;44.10;;;;;;5013097;28;20026;-77
2022/03/09 05:08:27;;;;;;;6.10;4.55;;;17.60;44.20;;;;;;5013474;28;20018;-78
2022/03/09 05:10:52;;;;;;;7.93;4.45;;;17.60;44.20;;;;;;5012857;28;20045;-78
2022/03/09 05:13:20;;;;;;;7.60;4.55;;;17.60;44.20;;;;;;5012821;28;20489;-78
2022/03/09 05:15:46;;;;;;;5.82;4.28;;;17.60;44.10;;;;;;5012318;28;20026;-78
2022/03/09 05:18:12;;;;;;;5.15;3.90;;;17.60;44.20;;;;;;5012790;28;20108;-78
2022/03/09 05:20:37;;;;;;;7.50;3.97;;;17.60;44.10;;;;;;5012685;28;20022;-77
2022/03/09 05:23:04;;;;;;;6.07;4.53;;;17.60;44.10;;;;;;5012804;28;20048;-78
2022/03/09 05:25:30;;;;;;;6.63;5.05;;;17.60;44.00;;;;;;5012518;28;20022;-78
2022/03/09 05:27:55;;;;;;;6.22;4.75;;;17.60;44.00;;;;;;5012933;28;20026;-78
2022/03/09 05:30:21;;;;;;;5.78;4.78;;;17.60;43.90;;;;;;5012657;28;20068;-78
2022/03/09 05:32:47;;;;;;;5.68;4.60;;;17.60;43.90;;;;;;5012148;28;20113;-77
2022/03/09 05:35:12;;;;;;;6.90;4.78;;;17.60;43.90;;;;;;5012450;28;20038;-77
2022/03/09 05:37:41;;;;;;;4.95;3.75;;;17.60;43.70;;;;;;5012267;28;20018;-77
2022/03/09 05:40:08;;;;;;;7.50;4.95;;;17.60;43.70;;;;;;5012272;28;20025;-77
2022/03/09 05:42:34;;;;;;;6.18;4.35;;;17.60;43.70;;;;;;5012365;28;20022;-77
2022/03/09 05:45:01;;;;;;;6.78;4.70;;;17.60;43.70;;;;;;4994577;28;20037;-78
2022/03/09 05:47:27;;;;;;;6.43;4.72;;;17.60;43.70;;;;;;4995144;28;20489;-77
2022/03/09 05:49:52;;;;;;;6.90;4.95;;;17.60;43.70;;;;;;5012096;28;20060;-78
2022/03/09 05:52:18;;;;;;;6.13;4.30;;;17.60;43.60;;;;;;5012131;28;20451;-77
2022/03/09 05:54:45;;;;;;;6.57;4.82;;;17.70;43.70;;;;;;5011834;28;20030;-77
2022/03/09 05:57:12;;;;;;;6.15;4.35;;;17.70;43.70;;;;;;5012215;28;20045;-78
2022/03/09 05:59:38;;;;;;;6.63;4.80;;;17.60;43.70;;;;;;5011571;28;20041;-78
2022/03/09 06:02:04;;;;;;;6.13;4.35;;;17.60;43.60;;;;;;5010826;28;20404;-77
2022/03/09 06:04:30;;;;;;;5.78;4.35;;;17.60;43.60;;;;;;5011400;28;20041;-78
2022/03/09 06:06:55;;;;;;;7.53;4.20;;;17.70;43.60;;;;;;5012395;28;20417;-78
2022/03/09 06:09:21;;;;;;;5.72;4.40;;;17.70;43.60;;;;;;5011759;28;20064;-77
2022/03/09 06:11:46;;;;;;;7.25;5.38;;;17.60;43.50;;;;;;5011179;28;20072;-77
2022/03/09 06:14:12;;;;;;;5.47;4.38;;;17.60;43.50;;;;;;5010680;28;20030;-78
2022/03/09 06:16:38;;;;;;;6.30;4.45;;;17.60;43.40;;;;;;5011740;28;20414;-78
2022/03/09 06:19:03;;;;;;;7.15;5.15;;;17.60;43.40;;;;;;5011778;28;20375;-79
2022/03/09 06:21:29;;;;;;;6.70;5.00;;;17.60;43.40;;;;;;5010769;28;20034;-78
2022/03/09 06:23:54;;;;;;;7.40;4.60;;;17.60;43.30;;;;;;5010685;28;20045;-78
2022/03/09 06:26:20;;;;;;;7.25;5.00;;;17.60;43.30;;;;;;5010693;28;20030;-78
2022/03/09 06:28:46;;;;;;;8.20;5.03;;;17.70;43.40;;;;;;5010080;28;20057;-78
2022/03/09 06:31:11;;;;;;;6.97;5.00;;;17.60;43.30;;;;;;5011491;28;20026;-79
2022/03/09 06:33:37;;;;;;;5.88;4.50;;;17.70;43.50;;;;;;5010424;28;20041;-78
2022/03/09 06:36:06;;;;;;;6.43;4.75;;;17.60;43.40;;;;;;5011349;28;20022;-77
2022/03/09 06:38:31;;;;;;;6.90;4.60;;;17.60;43.50;;;;;;5010894;28;20061;-78
2022/03/09 06:40:57;;;;;;;7.25;5.07;;;17.70;43.50;;;;;;5011771;28;20069;-77
2022/03/09 06:43:23;;;;;;;5.72;4.63;;;17.60;43.50;;;;;;5005644;28;20026;-79
2022/03/09 06:45:48;;;;;;;6.15;4.75;;;17.60;43.50;;;;;;5002625;28;20615;-79
2022/03/09 06:48:14;;;;;;;7.82;5.20;;;17.60;43.60;;;;;;4988434;28;20026;-78
2022/03/09 06:50:40;;;;;;;7.13;4.60;;;17.70;43.70;;;;;;5010523;28;20101;-79
2022/03/09 06:53:05;;;;;;;6.95;4.60;;;17.60;43.60;;;;;;5010899;28;20059;-79
2022/03/09 06:55:31;;;;;;;5.88;4.45;;;17.60;43.60;;;;;;5011110;28;20049;-81
2022/03/09 06:57:57;;;;;;;5.72;4.32;;;17.70;43.70;;;;;;5016960;28;20057;-78
2022/03/09 07:00:22;;;;;;;7.25;4.70;;;17.70;43.80;;;;;;5000425;28;20026;-77
2022/03/09 07:02:48;;;;;;;5.35;4.50;;;17.70;44.10;;;;;;4999436;28;20564;-77
2022/03/09 07:05:14;;;;;;;9.48;4.93;;;17.70;44.00;;;;;;5011578;28;20040;-78
2022/03/09 07:07:40;;;;;;;6.22;4.97;;;17.70;44.30;;;;;;5008575;28;20034;-80
2022/03/09 07:10:10;;;;;;;8.05;5.07;;;17.70;44.50;;;;;;5010751;28;20013;-78
2022/03/09 07:12:38;;;;;;;6.15;4.85;;;17.70;44.30;;;;;;5007965;28;20099;-77
2022/03/09 07:15:04;;;;;;;8.48;5.50;;;17.70;44.60;;;;;;4998634;28;20018;-81
2022/03/09 07:17:29;;;;;;;9.35;5.15;;;17.70;44.50;;;;;;5015078;28;20037;-78
2022/03/09 07:19:55;;;;;;;8.80;4.70;;;17.70;44.70;;;;;;5015196;28;20125;-78
2022/03/09 07:22:21;;;;;;;7.68;4.85;;;17.70;44.70;;;;;;5007501;28;20026;-78
2022/03/09 07:24:47;;;;;;;10.93;5.30;;;17.70;44.80;;;;;;5012504;28;20025;-78
2022/03/09 07:27:12;;;;;;;6.50;4.95;;;17.70;45.00;;;;;;5016055;28;20446;-79
2022/03/09 07:29:38;;;;;;;8.73;5.03;;;17.70;44.80;;;;;;5015714;28;20014;-78
2022/03/09 07:32:05;;;;;;;9.10;5.80;;;17.70;44.80;;;;;;5016678;28;20153;-78
2022/03/09 07:34:31;;;;;;;9.75;5.47;;;17.70;45.00;;;;;;5017023;28;20022;-78
2022/03/09 07:36:59;;;;;;;17.83;5.10;;;17.70;44.90;;;;;;5016680;28;20037;-78
2022/03/09 07:39:27;;;;;;;10.70;5.47;;;17.70;44.90;;;;;;4999745;28;20161;-78
2022/03/09 07:41:54;;;;;;;11.10;5.78;;;17.70;45.00;;;;;;5017250;28;20022;-78
2022/03/09 07:44:20;;;;;;;13.23;5.63;;;17.70;45.20;;;;;;5017189;28;20041;-78
2022/03/09 07:46:46;;;;;;;7.20;5.60;;;17.70;45.30;;;;;;5016786;28;20505;-79
2022/03/09 07:49:12;;;;;;;10.43;5.75;;;17.80;45.60;;;;;;5016664;28;20033;-78
2022/03/09 07:51:37;;;;;;;8.05;5.32;;;17.80;45.40;;;;;;5016718;28;20080;-79
2022/03/09 07:54:03;;;;;;;7.80;5.68;;;17.80;45.50;;;;;;5015087;28;20030;-77
2022/03/09 07:56:29;;;;;;;7.28;5.05;;;17.90;45.60;;;;;;5002783;28;20580;-78
2022/03/09 07:58:55;;;;;;;10.27;5.22;;;17.90;45.60;;;;;;5016985;28;20042;-78
2022/03/09 08:01:20;;;;;;;8.90;5.18;;;17.90;45.90;;;;;;5015116;28;20045;-80
2022/03/09 08:03:46;;;;;;;9.13;5.75;;;17.80;45.80;;;;;;5016482;28;20022;-79
2022/03/09 08:06:12;;;;;;;6.45;4.38;;;17.90;46.20;;;;;;5016844;28;20088;-80
2022/03/09 08:08:38;;;;;;;9.93;5.05;;;17.90;46.00;;;;;;5014315;28;20486;-80
2022/03/09 08:11:04;;;;;;;9.13;5.00;;;17.90;46.00;;;;;;5013335;28;20033;-78
2022/03/09 08:13:29;;;;;;;6.90;4.40;;;17.90;45.80;;;;;;5013489;28;20033;-79
2022/03/09 08:15:55;;;;;;;8.35;5.50;;;17.80;45.70;;;;;;5015846;28;20460;-79
2022/03/09 08:18:21;;;;;;;11.27;6.18;;;17.90;45.50;;;;;;5014906;28;20038;-77
2022/03/09 08:20:46;;;;;;;13.35;6.55;;;17.80;45.20;;;;;;5013411;28;20496;-77
2022/03/09 08:23:12;;;;;;;12.73;6.38;;;17.80;45.00;;;;;;5013510;28;20160;-78
2022/03/09 08:25:38;;;;;;;16.00;6.18;;;17.80;44.80;;;;;;5011911;28;20026;-77
2022/03/09 08:28:04;;;;;;;13.05;6.07;;;17.80;44.80;;;;;;5007643;28;20041;-77
2022/03/09 08:30:30;;;;;;;9.13;6.82;;;17.80;45.00;;;;;;5003189;28;20031;-79
2022/03/09 08:32:55;;;;;;;17.35;5.80;;;17.80;45.00;;;;;;5002259;28;20030;-76
2022/03/09 08:35:21;;;;;;;13.60;5.47;;;17.90;45.10;;;;;;5013801;28;20389;-78
2022/03/09 08:37:47;;;;;;;10.45;5.75;;;17.80;45.10;;;;;;5013130;28;20091;-81
2022/03/09 08:40:12;;;;;;;8.65;6.05;;;17.90;45.10;;;;;;5013017;28;20485;-77
2022/03/09 08:42:39;;;;;;;8.57;5.90;;;17.90;45.10;;;;;;5012993;28;20025;-80
2022/03/09 08:45:05;;;;;;;7.03;5.18;;;17.90;45.40;;;;;;5012963;28;20049;-77
2022/03/09 08:47:31;;;;;;;7.45;5.47;;;17.90;45.40;;;;;;5012250;28;20049;-77
2022/03/09 08:49:57;;;;;;;12.35;5.80;;;17.90;45.30;;;;;;5013174;28;20482;-77
2022/03/09 08:52:23;;;;;;;9.27;5.22;;;17.90;45.20;;;;;;5012826;28;20026;-77
2022/03/09 08:54:53;;;;;;;8.65;5.10;;;17.90;45.20;;;;;;5012598;28;20241;-77
2022/03/09 08:57:20;;;;;;;8.68;4.75;;;17.90;45.10;;;;;;5010859;28;20117;-80
2022/03/09 08:59:45;;;;;;;10.15;5.78;;;18.00;45.10;;;;;;5012233;28;20030;-77
2022/03/09 09:02:11;;;;;;;9.15;6.00;;;18.00;45.00;;;;;;5012113;28;20092;-77
2022/03/09 09:04:37;;;;;;;8.57;5.35;;;17.90;44.90;;;;;;5012382;28;20038;-76
2022/03/09 09:07:03;;;;;;;11.73;5.28;;;17.90;44.90;;;;;;5012155;28;20088;-76
2022/03/09 09:09:29;;;;;;;9.60;5.35;;;17.90;44.70;;;;;;5012416;28;20029;-77
2022/03/09 09:11:54;;;;;;;7.32;5.28;;;17.90;44.70;;;;;;5009144;28;20085;-77
2022/03/09 09:14:21;;;;;;;9.23;4.60;;;17.90;44.60;;;;;;4990405;28;20409;-76
2022/03/09 09:16:47;;;;;;;12.20;5.82;;;18.00;44.50;;;;;;5008139;28;20017;-78
2022/03/09 09:19:13;;;;;;;9.32;5.22;;;18.00;44.40;;;;;;4995742;28;20050;-77
2022/03/09 09:21:38;;;;;;;9.75;6.20;;;17.90;44.10;;;;;;5008915;28;20022;-76
2022/03/09 09:24:05;;;;;;;10.20;6.10;;;18.00;44.10;;;;;;5002007;28;20030;-78
2022/03/09 09:26:30;;;;;;;9.63;6.10;;;17.90;44.00;;;;;;5012147;28;20018;-77
2022/03/09 09:28:56;;;;;;;10.05;5.95;;;17.90;43.90;;;;;;5012503;28;20030;-77
2022/03/09 09:31:22;;;;;;;9.02;5.75;;;18.00;43.90;;;;;;5009368;28;20034;-76
2022/03/09 09:33:47;;;;;;;8.13;5.70;;;18.00;44.50;;;;;;5007999;28;20052;-76
2022/03/09 09:36:13;;;;;;;8.35;5.78;;;17.90;43.80;;;;;;5011109;28;20026;-77
2022/03/09 09:38:39;;;;;;;8.45;5.30;;;17.90;43.70;;;;;;5011606;28;20122;-76
2022/03/09 09:41:08;;;;;;;9.65;5.82;;;18.00;43.80;;;;;;4993394;28;20459;-77
2022/03/09 09:43:34;;;;;;;10.43;6.18;;;18.00;43.70;;;;;;5012269;28;20050;-77
2022/03/09 09:45:59;;;;;;;7.45;5.28;;;18.00;43.70;;;;;;5011226;28;20493;-76
2022/03/09 09:48:25;;;;;;;11.50;6.20;;;18.00;43.60;;;;;;5012441;28;20033;-76
2022/03/09 09:50:52;;;;;;;9.85;6.13;;;18.00;43.60;;;;;;5012100;28;20028;-77
2022/03/09 09:53:18;;;;;;;9.32;5.55;;;18.00;43.50;;;;;;5011775;28;20049;-77
2022/03/09 09:55:44;;;;;;;8.80;5.63;;;18.00;43.60;;;;;;5011236;28;20026;-77
2022/03/09 09:58:10;;;;;;;9.95;5.63;;;18.00;43.50;;;;;;5010890;28;20501;-78
2022/03/09 10:00:36;;;;;;;7.40;5.15;;;18.00;43.50;;;;;;5012003;28;20053;-76
2022/03/09 10:03:03;;;;;;;8.90;5.63;;;18.10;43.50;;;;;;5012190;28;20077;-80
2022/03/09 10:05:29;;;;;;;8.23;5.10;;;18.00;43.40;;;;;;5011835;28;20468;-78
2022/03/09 10:08:04;;;;;;;11.13;5.40;;;18.10;43.50;;;;;;5012385;28;20025;-76
2022/03/09 10:10:37;;;;;;;9.32;6.25;;;18.10;43.40;;;;;;5011117;28;20022;-77
2022/03/09 10:13:20;;;;;;;7.50;5.32;;;18.10;43.30;;;;;;5007200;28;20501;-77
2022/03/09 10:15:48;;;;;;;10.25;5.78;;;18.10;43.30;;;;;;5009340;28;20482;-76
2022/03/09 10:18:15;;;;;;;9.07;5.40;;;18.10;43.30;;;;;;5011814;28;20088;-76
2022/03/09 10:20:41;;;;;;;7.75;5.28;;;18.10;43.20;;;;;;5010650;28;20080;-76
2022/03/09 10:23:08;;;;;;;7.35;5.40;;;18.10;43.20;;;;;;5011375;28;20108;-76
2022/03/09 10:25:34;;;;;;;8.52;5.82;;;18.10;43.20;;;;;;5010900;28;20030;-77
2022/03/09 10:28:06;;;;;;;8.52;5.60;;;18.20;43.30;;;;;;5011099;28;20417;-77
2022/03/09 10:30:34;;;;;;;11.18;6.15;;;18.20;43.20;;;;;;5010204;28;20033;-76
2022/03/09 10:33:01;;;;;;;7.63;5.00;;;18.20;43.20;;;;;;5011447;28;20501;-77
2022/03/09 10:35:30;;;;;;;7.60;5.00;;;18.20;43.20;;;;;;5011910;28;20505;-76
2022/03/09 10:37:57;;;;;;;8.65;5.25;;;18.20;43.10;;;;;;5011778;28;20022;-79
2022/03/09 10:40:23;;;;;;;7.82;5.65;;;18.20;43.10;;;;;;5010547;28;20071;-77
2022/03/09 10:42:50;;;;;;;9.15;5.90;;;18.30;43.10;;;;;;5010961;28;20041;-78
2022/03/09 10:45:17;;;;;;;7.38;4.97;;;18.30;43.10;;;;;;5011436;28;20037;-77
2022/03/09 10:47:47;;;;;;;7.38;5.80;;;18.30;43.10;;;;;;5009991;28;20413;-76
2022/03/09 10:50:25;;;;;;;9.45;5.68;;;18.40;43.10;;;;;;5008863;28;20038;-78
2022/03/09 10:52:53;;;;;;;8.27;5.28;;;18.40;43.00;;;;;;5009792;28;20033;-76
2022/03/09 10:55:35;;;;;;;7.15;4.90;;;18.40;43.10;;;;;;5009546;28;20566;-77
2022/03/09 10:58:06;;;;;;;6.68;4.45;;;18.40;43.10;;;;;;5010873;28;20066;-76
2022/03/09 11:00:54;;;;;;;6.97;5.03;;;18.40;43.00;;;;;;5010564;28;20371;-76
2022/03/09 11:03:23;;;;;;;5.70;4.00;;;18.50;43.10;;;;;;5007649;28;20028;-76
2022/03/09 11:06:07;;;;;;;7.18;4.85;;;18.50;43.00;;;;;;5010231;28;21004;-76
2022/03/09 11:08:34;;;;;;;7.68;4.80;;;18.50;43.00;;;;;;5009976;28;20045;-78
2022/03/09 11:11:01;;;;;;;5.75;4.47;;;18.60;43.10;;;;;;4993542;28;20080;-78
2022/03/09 11:13:31;;;;;;;7.97;4.28;;;18.60;43.00;;;;;;5010087;28;20037;-77
2022/03/09 11:15:57;;;;;;;5.88;4.15;;;18.60;43.00;;;;;;5010815;28;20025;-78
2022/03/09 11:18:25;;;;;;;5.45;3.88;;;18.70;43.00;;;;;;5009007;28;20038;-77
2022/03/09 11:20:59;;;;;;;6.47;4.70;;;18.70;43.00;;;;;;5005284;28;20393;-76
2022/03/09 11:23:27;;;;;;;7.53;4.40;;;18.80;42.90;;;;;;5009842;28;20101;-78
2022/03/09 11:25:58;;;;;;;7.85;4.68;;;18.80;43.30;;;;;;5007957;28;20025;-77
2022/03/09 11:28:26;;;;;;;5.35;3.95;;;18.90;42.80;;;;;;5009793;28;20096;-76
2022/03/09 11:31:17;;;;;;;7.90;4.72;;;18.90;42.80;;;;;;5010648;28;20030;-78
2022/03/09 11:33:45;;;;;;;6.78;4.40;;;18.90;42.70;;;;;;5005705;28;20038;-77
2022/03/09 11:36:29;;;;;;;5.97;4.20;;;18.90;42.80;;;;;;5008197;28;20397;-76
2022/03/09 11:39:04;;;;;;;5.63;3.88;;;19.00;42.80;;;;;;4995553;28;20041;-82
2022/03/09 11:41:35;;;;;;;7.60;4.70;;;19.10;42.90;;;;;;4989414;28;20029;-79
2022/03/09 11:44:20;;;;;;;5.88;3.72;;;19.10;42.80;;;;;;4993236;28;20054;-78
2022/03/09 11:47:00;;;;;;;7.78;4.40;;;19.20;42.80;;;;;;5010049;28;20552;-77
2022/03/09 11:49:49;;;;;;;6.50;3.83;;;19.40;42.70;;;;;;5014330;28;20029;-76
2022/03/09 11:52:14;;;;;;;7.10;4.75;;;19.60;42.70;;;;;;5013268;28;20061;-77
2022/03/09 11:54:46;;;;;;;5.72;4.20;;;19.80;43.10;;;;;;5013775;28;20462;-77
2022/03/09 11:57:16;;;;;;;6.85;4.18;;;19.90;43.40;;;;;;5019913;28;20049;-78
2022/03/09 12:00:18;;;;;;;6.90;4.30;;;20.00;43.20;;;;;;4996047;28;20041;-77
2022/03/09 12:02:55;;;;;;;7.95;3.75;;;20.10;43.00;;;;;;5014066;28;20091;-78
2022/03/09 12:05:41;;;;;;;5.97;3.38;;;20.40;43.10;;;;;;5014385;28;20025;-79
2022/03/09 12:08:09;;;;;;;;;;;20.50;42.80;;;;;;5012963;28;20109;-77
2022/03/09 12:10:51;;;;;;;5.72;3.42;;;20.70;42.60;;;;;;5014035;28;19905;-77
2022/03/09 12:13:18;;;;;;;8.32;3.33;;;20.90;42.60;;;;;;5014188;28;20032;-79
2022/03/09 12:16:12;;;;;;;5.07;3.00;;;21.00;42.40;;;;;;5013057;28;20030;-78
2022/03/09 12:18:38;;;;;;;7.20;3.90;;;21.10;42.70;;;;;;5006708;28;20524;-76
2022/03/09 12:21:05;;;;;;;5.55;3.60;;;21.30;42.30;;;;;;5012727;28;20033;-77
2022/03/09 12:23:31;;;;;;;4.80;3.40;;;21.80;41.70;;;;;;5012880;28;20102;-81
2022/03/09 12:25:58;;;;;;;4.28;3.10;;;22.70;40.30;;;;;;5013564;28;20022;-78
2022/03/09 12:30:52;;;;;;;7.68;3.13;;;24.70;37.60;;;;;;5013466;28;20092;-77
2022/03/09 12:33:24;;;;;;;5.32;3.30;;;25.50;36.20;;;;;;5013781;28;20489;-78
2022/03/09 12:35:50;;;;;;;4.05;2.78;;;25.90;35.50;;;;;;5012963;28;20114;-77
2022/03/09 12:38:16;;;;;;;5.90;3.00;;;26.20;35.30;;;;;;5013639;28;20478;-77
2022/03/09 12:40:42;;;;;;;4.72;2.65;;;26.50;35.00;;;;;;5013312;28;20037;-79
2022/03/09 12:43:07;;;;;;;5.35;2.72;;;27.00;34.30;;;;;;5012847;28;20030;-78
2022/03/09 12:45:52;;;;;;;5.20;3.15;;;27.10;34.00;;;;;;5012944;28;20022;-77
2022/03/09 12:48:20;;;;;;;3.95;2.70;;;27.30;33.80;;;;;;5013549;28;20029;-77
2022/03/09 12:50:45;;;;;;;5.10;3.22;;;27.50;33.40;;;;;;5012763;28;20022;-77